sensor_id;sensor_type;location;lat;lon;timestamp;P1;durP1;ratioP1;P2;durP2;ratioP2
29196;SDS011;62796;42.654;23.316;2022-12-07T00:01:36;96.15;;;49.35;;
29196;SDS011;62796;42.654;23.316;2022-12-07T00:04:06;78.38;;;38.28;;
29196;SDS011;62796;42.654;23.316;2022-12-07T00:06:44;71.90;;;35.42;;
29196;SDS011;62796;42.654;23.316;2022-12-07T00:09:13;76.50;;;37.80;;
29196;SDS011;62796;42.654;23.316;2022-12-07T00:11:40;71.55;;;37.17;;
29196;SDS011;62796;42.654;23.316;2022-12-07T00:14:08;72.47;;;38.97;;
29196;SDS011;62796;42.654;23.316;2022-12-07T00:16:37;78.80;;;38.65;;
29196;SDS011;62796;42.654;23.316;2022-12-07T00:19:03;69.07;;;36.33;;
29196;SDS011;62796;42.654;23.316;2022-12-07T00:21:33;72.13;;;36.65;;
29196;SDS011;62796;42.654;23.316;2022-12-07T00:23:59;74.47;;;37.38;;
29196;SDS011;62796;42.654;23.316;2022-12-07T00:26:36;78.15;;;37.83;;
29196;SDS011;62796;42.654;23.316;2022-12-07T00:29:05;69.55;;;36.45;;
29196;SDS011;62796;42.654;23.316;2022-12-07T00:31:32;69.72;;;37.33;;
29196;SDS011;62796;42.654;23.316;2022-12-07T00:34:00;75.22;;;37.75;;
29196;SDS011;62796;42.654;23.316;2022-12-07T00:36:26;69.00;;;36.28;;
29196;SDS011;62796;42.654;23.316;2022-12-07T00:38:53;74.80;;;37.28;;
29196;SDS011;62796;42.654;23.316;2022-12-07T00:41:20;71.60;;;37.22;;
29196;SDS011;62796;42.654;23.316;2022-12-07T00:43:47;68.43;;;34.92;;
29196;SDS011;62796;42.654;23.316;2022-12-07T00:46:14;75.43;;;36.70;;
29196;SDS011;62796;42.654;23.316;2022-12-07T00:48:41;75.13;;;36.20;;
29196;SDS011;62796;42.654;23.316;2022-12-07T00:51:07;73.30;;;35.85;;
29196;SDS011;62796;42.654;23.316;2022-12-07T00:53:34;70.13;;;37.85;;
29196;SDS011;62796;42.654;23.316;2022-12-07T00:56:06;64.70;;;35.35;;
29196;SDS011;62796;42.654;23.316;2022-12-07T00:58:33;62.90;;;33.75;;
29196;SDS011;62796;42.654;23.316;2022-12-07T01:01:02;62.38;;;34.80;;
29196;SDS011;62796;42.654;23.316;2022-12-07T01:03:29;70.72;;;34.85;;
29196;SDS011;62796;42.654;23.316;2022-12-07T01:05:55;72.55;;;35.97;;
29196;SDS011;62796;42.654;23.316;2022-12-07T01:08:21;82.40;;;38.55;;
29196;SDS011;62796;42.654;23.316;2022-12-07T01:10:48;82.97;;;39.63;;
29196;SDS011;62796;42.654;23.316;2022-12-07T01:13:14;69.82;;;37.40;;
29196;SDS011;62796;42.654;23.316;2022-12-07T01:15:43;75.68;;;38.35;;
29196;SDS011;62796;42.654;23.316;2022-12-07T01:18:10;79.00;;;37.65;;
29196;SDS011;62796;42.654;23.316;2022-12-07T01:20:36;71.88;;;37.03;;
29196;SDS011;62796;42.654;23.316;2022-12-07T01:23:02;70.05;;;36.03;;
29196;SDS011;62796;42.654;23.316;2022-12-07T01:25:28;69.28;;;35.22;;
29196;SDS011;62796;42.654;23.316;2022-12-07T01:27:53;62.83;;;34.10;;
29196;SDS011;62796;42.654;23.316;2022-12-07T01:30:18;62.53;;;35.50;;
29196;SDS011;62796;42.654;23.316;2022-12-07T01:32:44;72.05;;;35.65;;
29196;SDS011;62796;42.654;23.316;2022-12-07T01:35:09;72.57;;;35.90;;
29196;SDS011;62796;42.654;23.316;2022-12-07T01:37:35;70.72;;;35.83;;
29196;SDS011;62796;42.654;23.316;2022-12-07T01:40:02;69.95;;;34.70;;
29196;SDS011;62796;42.654;23.316;2022-12-07T01:42:28;70.53;;;36.47;;
29196;SDS011;62796;42.654;23.316;2022-12-07T01:47:46;66.90;;;35.20;;
29196;SDS011;62796;42.654;23.316;2022-12-07T01:50:16;68.97;;;36.63;;
29196;SDS011;62796;42.654;23.316;2022-12-07T01:52:42;70.30;;;35.58;;
29196;SDS011;62796;42.654;23.316;2022-12-07T01:55:10;70.68;;;35.85;;
29196;SDS011;62796;42.654;23.316;2022-12-07T01:57:40;61.80;;;32.55;;
29196;SDS011;62796;42.654;23.316;2022-12-07T02:00:08;65.25;;;33.65;;
29196;SDS011;62796;42.654;23.316;2022-12-07T02:02:41;66.05;;;34.00;;
29196;SDS011;62796;42.654;23.316;2022-12-07T02:05:12;70.82;;;35.90;;
29196;SDS011;62796;42.654;23.316;2022-12-07T02:07:38;87.00;;;37.40;;
29196;SDS011;62796;42.654;23.316;2022-12-07T02:12:43;72.03;;;36.80;;
29196;SDS011;62796;42.654;23.316;2022-12-07T02:15:12;68.05;;;36.17;;
29196;SDS011;62796;42.654;23.316;2022-12-07T02:31:30;64.20;;;35.13;;
29196;SDS011;62796;42.654;23.316;2022-12-07T02:34:07;62.38;;;34.30;;
29196;SDS011;62796;42.654;23.316;2022-12-07T02:36:41;61.63;;;35.07;;
29196;SDS011;62796;42.654;23.316;2022-12-07T02:39:24;69.00;;;37.13;;
29196;SDS011;62796;42.654;23.316;2022-12-07T02:42:26;69.55;;;35.55;;
29196;SDS011;62796;42.654;23.316;2022-12-07T02:44:57;62.00;;;33.10;;
29196;SDS011;62796;42.654;23.316;2022-12-07T02:47:25;60.55;;;33.25;;
29196;SDS011;62796;42.654;23.316;2022-12-07T02:49:53;56.75;;;30.90;;
29196;SDS011;62796;42.654;23.316;2022-12-07T02:52:19;58.95;;;31.80;;
29196;SDS011;62796;42.654;23.316;2022-12-07T02:54:44;59.90;;;32.47;;
29196;SDS011;62796;42.654;23.316;2022-12-07T03:07:54;63.03;;;34.15;;
29196;SDS011;62796;42.654;23.316;2022-12-07T03:13:12;59.85;;;33.58;;
29196;SDS011;62796;42.654;23.316;2022-12-07T03:18:21;55.00;;;29.88;;
29196;SDS011;62796;42.654;23.316;2022-12-07T03:20:51;65.47;;;31.15;;
29196;SDS011;62796;42.654;23.316;2022-12-07T03:23:20;58.55;;;33.20;;
29196;SDS011;62796;42.654;23.316;2022-12-07T03:25:49;53.97;;;31.55;;
29196;SDS011;62796;42.654;23.316;2022-12-07T03:28:22;60.80;;;31.50;;
29196;SDS011;62796;42.654;23.316;2022-12-07T03:30:56;57.88;;;31.02;;
29196;SDS011;62796;42.654;23.316;2022-12-07T03:33:31;66.57;;;32.20;;
29196;SDS011;62796;42.654;23.316;2022-12-07T03:36:06;56.22;;;30.90;;
29196;SDS011;62796;42.654;23.316;2022-12-07T03:38:45;69.22;;;37.25;;
29196;SDS011;62796;42.654;23.316;2022-12-07T03:41:24;70.63;;;39.10;;
29196;SDS011;62796;42.654;23.316;2022-12-07T03:43:53;95.40;;;50.58;;
29196;SDS011;62796;42.654;23.316;2022-12-07T03:46:24;93.78;;;48.60;;
29196;SDS011;62796;42.654;23.316;2022-12-07T03:51:33;136.00;;;66.97;;
29196;SDS011;62796;42.654;23.316;2022-12-07T03:54:09;133.70;;;66.07;;
29196;SDS011;62796;42.654;23.316;2022-12-07T03:56:41;92.60;;;47.88;;
29196;SDS011;62796;42.654;23.316;2022-12-07T03:59:09;105.50;;;53.20;;
29196;SDS011;62796;42.654;23.316;2022-12-07T04:01:38;96.32;;;49.35;;
29196;SDS011;62796;42.654;23.316;2022-12-07T04:04:03;80.55;;;42.13;;
29196;SDS011;62796;42.654;23.316;2022-12-07T04:06:29;79.68;;;43.97;;
29196;SDS011;62796;42.654;23.316;2022-12-07T04:08:54;74.05;;;42.63;;
29196;SDS011;62796;42.654;23.316;2022-12-07T04:11:20;114.53;;;63.47;;
29196;SDS011;62796;42.654;23.316;2022-12-07T04:13:45;87.65;;;48.25;;
29196;SDS011;62796;42.654;23.316;2022-12-07T04:16:29;79.25;;;40.65;;
29196;SDS011;62796;42.654;23.316;2022-12-07T04:18:54;63.50;;;36.67;;
29196;SDS011;62796;42.654;23.316;2022-12-07T04:21:20;59.10;;;32.17;;
29196;SDS011;62796;42.654;23.316;2022-12-07T04:23:45;65.35;;;32.22;;
29196;SDS011;62796;42.654;23.316;2022-12-07T04:26:11;55.42;;;32.45;;
29196;SDS011;62796;42.654;23.316;2022-12-07T04:28:36;57.58;;;33.28;;
29196;SDS011;62796;42.654;23.316;2022-12-07T04:31:01;55.95;;;30.55;;
29196;SDS011;62796;42.654;23.316;2022-12-07T04:33:27;58.20;;;30.63;;
29196;SDS011;62796;42.654;23.316;2022-12-07T04:35:52;65.93;;;36.72;;
29196;SDS011;62796;42.654;23.316;2022-12-07T04:38:18;55.30;;;29.80;;
29196;SDS011;62796;42.654;23.316;2022-12-07T04:40:43;74.80;;;43.83;;
29196;SDS011;62796;42.654;23.316;2022-12-07T04:43:09;63.75;;;32.53;;
29196;SDS011;62796;42.654;23.316;2022-12-07T04:45:34;53.63;;;27.10;;
29196;SDS011;62796;42.654;23.316;2022-12-07T04:47:59;47.10;;;27.08;;
29196;SDS011;62796;42.654;23.316;2022-12-07T04:50:25;58.13;;;32.65;;
29196;SDS011;62796;42.654;23.316;2022-12-07T04:52:50;58.15;;;32.10;;
29196;SDS011;62796;42.654;23.316;2022-12-07T04:55:16;49.63;;;28.15;;
29196;SDS011;62796;42.654;23.316;2022-12-07T04:57:41;53.47;;;29.13;;
29196;SDS011;62796;42.654;23.316;2022-12-07T05:00:07;47.67;;;27.77;;
29196;SDS011;62796;42.654;23.316;2022-12-07T05:02:33;56.38;;;28.00;;
29196;SDS011;62796;42.654;23.316;2022-12-07T05:04:58;54.25;;;28.42;;
29196;SDS011;62796;42.654;23.316;2022-12-07T05:07:23;48.15;;;27.50;;
29196;SDS011;62796;42.654;23.316;2022-12-07T05:09:49;51.78;;;29.95;;
29196;SDS011;62796;42.654;23.316;2022-12-07T05:12:14;47.97;;;27.58;;
29196;SDS011;62796;42.654;23.316;2022-12-07T05:14:40;51.55;;;27.83;;
29196;SDS011;62796;42.654;23.316;2022-12-07T05:17:05;55.50;;;28.83;;
29196;SDS011;62796;42.654;23.316;2022-12-07T05:19:30;55.38;;;28.77;;
29196;SDS011;62796;42.654;23.316;2022-12-07T05:21:56;57.92;;;32.08;;
29196;SDS011;62796;42.654;23.316;2022-12-07T05:24:21;49.20;;;28.52;;
29196;SDS011;62796;42.654;23.316;2022-12-07T05:26:47;52.65;;;28.15;;
29196;SDS011;62796;42.654;23.316;2022-12-07T05:29:13;56.10;;;28.98;;
29196;SDS011;62796;42.654;23.316;2022-12-07T05:31:40;60.65;;;29.42;;
29196;SDS011;62796;42.654;23.316;2022-12-07T05:34:06;57.50;;;27.88;;
29196;SDS011;62796;42.654;23.316;2022-12-07T05:36:31;55.53;;;27.98;;
29196;SDS011;62796;42.654;23.316;2022-12-07T05:38:57;58.58;;;29.85;;
29196;SDS011;62796;42.654;23.316;2022-12-07T05:41:23;55.60;;;28.73;;
29196;SDS011;62796;42.654;23.316;2022-12-07T05:44:07;54.05;;;27.83;;
29196;SDS011;62796;42.654;23.316;2022-12-07T05:46:32;54.22;;;29.55;;
29196;SDS011;62796;42.654;23.316;2022-12-07T05:48:58;52.40;;;28.45;;
29196;SDS011;62796;42.654;23.316;2022-12-07T05:51:24;53.97;;;28.48;;
29196;SDS011;62796;42.654;23.316;2022-12-07T05:53:49;52.35;;;30.23;;
29196;SDS011;62796;42.654;23.316;2022-12-07T05:56:15;71.30;;;35.78;;
29196;SDS011;62796;42.654;23.316;2022-12-07T05:58:40;68.85;;;37.72;;
29196;SDS011;62796;42.654;23.316;2022-12-07T06:01:25;69.50;;;36.00;;
29196;SDS011;62796;42.654;23.316;2022-12-07T06:03:50;65.68;;;34.90;;
29196;SDS011;62796;42.654;23.316;2022-12-07T06:06:15;69.13;;;35.30;;
29196;SDS011;62796;42.654;23.316;2022-12-07T06:08:41;78.93;;;40.30;;
29196;SDS011;62796;42.654;23.316;2022-12-07T06:11:06;84.95;;;45.25;;
29196;SDS011;62796;42.654;23.316;2022-12-07T06:16:16;81.93;;;41.63;;
29196;SDS011;62796;42.654;23.316;2022-12-07T06:18:41;78.95;;;39.35;;
29196;SDS011;62796;42.654;23.316;2022-12-07T06:21:07;67.10;;;35.45;;
29196;SDS011;62796;42.654;23.316;2022-12-07T06:23:32;76.57;;;42.28;;
29196;SDS011;62796;42.654;23.316;2022-12-07T06:25:58;76.68;;;39.78;;
29196;SDS011;62796;42.654;23.316;2022-12-07T06:28:23;64.05;;;34.47;;
29196;SDS011;62796;42.654;23.316;2022-12-07T06:30:56;64.25;;;33.72;;
29196;SDS011;62796;42.654;23.316;2022-12-07T06:33:23;58.55;;;32.95;;
29196;SDS011;62796;42.654;23.316;2022-12-07T06:35:48;62.33;;;31.30;;
29196;SDS011;62796;42.654;23.316;2022-12-07T06:38:14;63.55;;;39.47;;
29196;SDS011;62796;42.654;23.316;2022-12-07T06:40:39;65.63;;;37.97;;
29196;SDS011;62796;42.654;23.316;2022-12-07T06:43:05;60.75;;;35.70;;
29196;SDS011;62796;42.654;23.316;2022-12-07T06:45:30;50.45;;;30.88;;
29196;SDS011;62796;42.654;23.316;2022-12-07T06:47:55;58.22;;;32.95;;
29196;SDS011;62796;42.654;23.316;2022-12-07T06:50:21;61.90;;;32.70;;
29196;SDS011;62796;42.654;23.316;2022-12-07T06:52:46;74.85;;;38.47;;
29196;SDS011;62796;42.654;23.316;2022-12-07T06:55:12;79.07;;;35.30;;
29196;SDS011;62796;42.654;23.316;2022-12-07T06:57:37;66.22;;;32.85;;
29196;SDS011;62796;42.654;23.316;2022-12-07T07:00:02;69.13;;;33.80;;
29196;SDS011;62796;42.654;23.316;2022-12-07T07:02:28;70.78;;;34.42;;
29196;SDS011;62796;42.654;23.316;2022-12-07T07:04:54;77.93;;;34.58;;
29196;SDS011;62796;42.654;23.316;2022-12-07T07:07:19;80.03;;;34.55;;
29196;SDS011;62796;42.654;23.316;2022-12-07T07:09:45;71.03;;;31.25;;
29196;SDS011;62796;42.654;23.316;2022-12-07T07:12:10;66.05;;;30.45;;
29196;SDS011;62796;42.654;23.316;2022-12-07T07:14:35;74.55;;;34.30;;
29196;SDS011;62796;42.654;23.316;2022-12-07T07:17:01;74.20;;;34.50;;
29196;SDS011;62796;42.654;23.316;2022-12-07T07:19:26;89.00;;;35.15;;
29196;SDS011;62796;42.654;23.316;2022-12-07T07:21:52;72.28;;;34.13;;
29196;SDS011;62796;42.654;23.316;2022-12-07T07:24:17;73.55;;;34.60;;
29196;SDS011;62796;42.654;23.316;2022-12-07T07:26:43;70.95;;;35.05;;
29196;SDS011;62796;42.654;23.316;2022-12-07T07:29:08;72.97;;;33.38;;
29196;SDS011;62796;42.654;23.316;2022-12-07T07:31:34;70.13;;;35.40;;
29196;SDS011;62796;42.654;23.316;2022-12-07T07:34:00;77.43;;;34.85;;
29196;SDS011;62796;42.654;23.316;2022-12-07T07:36:26;79.35;;;35.28;;
29196;SDS011;62796;42.654;23.316;2022-12-07T07:38:51;76.72;;;35.70;;
29196;SDS011;62796;42.654;23.316;2022-12-07T07:41:17;72.70;;;37.15;;
29196;SDS011;62796;42.654;23.316;2022-12-07T07:43:43;77.07;;;37.97;;
29196;SDS011;62796;42.654;23.316;2022-12-07T07:46:08;81.80;;;36.47;;
29196;SDS011;62796;42.654;23.316;2022-12-07T07:48:33;79.78;;;34.95;;
29196;SDS011;62796;42.654;23.316;2022-12-07T07:50:59;65.43;;;32.80;;
29196;SDS011;62796;42.654;23.316;2022-12-07T07:53:24;70.75;;;31.58;;
29196;SDS011;62796;42.654;23.316;2022-12-07T07:55:53;79.68;;;38.28;;
29196;SDS011;62796;42.654;23.316;2022-12-07T07:58:19;72.13;;;34.30;;
29196;SDS011;62796;42.654;23.316;2022-12-07T08:00:45;71.63;;;33.75;;
29196;SDS011;62796;42.654;23.316;2022-12-07T08:03:11;73.18;;;33.33;;
29196;SDS011;62796;42.654;23.316;2022-12-07T08:05:36;67.47;;;31.92;;
29196;SDS011;62796;42.654;23.316;2022-12-07T08:08:02;58.03;;;30.77;;
29196;SDS011;62796;42.654;23.316;2022-12-07T08:10:28;69.78;;;30.67;;
29196;SDS011;62796;42.654;23.316;2022-12-07T08:12:53;59.08;;;29.00;;
29196;SDS011;62796;42.654;23.316;2022-12-07T08:15:39;62.63;;;30.30;;
29196;SDS011;62796;42.654;23.316;2022-12-07T08:18:06;57.05;;;31.10;;
29196;SDS011;62796;42.654;23.316;2022-12-07T08:20:31;60.38;;;30.50;;
29196;SDS011;62796;42.654;23.316;2022-12-07T08:22:58;66.28;;;29.45;;
29196;SDS011;62796;42.654;23.316;2022-12-07T08:25:24;52.63;;;28.38;;
29196;SDS011;62796;42.654;23.316;2022-12-07T08:27:50;60.75;;;29.70;;
29196;SDS011;62796;42.654;23.316;2022-12-07T08:30:16;59.20;;;30.98;;
29196;SDS011;62796;42.654;23.316;2022-12-07T08:32:43;52.90;;;30.58;;
29196;SDS011;62796;42.654;23.316;2022-12-07T08:35:09;59.17;;;32.38;;
29196;SDS011;62796;42.654;23.316;2022-12-07T08:37:35;57.05;;;31.98;;
29196;SDS011;62796;42.654;23.316;2022-12-07T08:40:01;65.30;;;34.70;;
29196;SDS011;62796;42.654;23.316;2022-12-07T08:42:27;64.15;;;33.20;;
29196;SDS011;62796;42.654;23.316;2022-12-07T08:44:55;68.90;;;33.15;;
29196;SDS011;62796;42.654;23.316;2022-12-07T08:47:22;60.05;;;30.58;;
29196;SDS011;62796;42.654;23.316;2022-12-07T08:49:50;60.05;;;31.30;;
29196;SDS011;62796;42.654;23.316;2022-12-07T08:52:17;76.35;;;34.42;;
29196;SDS011;62796;42.654;23.316;2022-12-07T08:54:42;68.68;;;33.95;;
29196;SDS011;62796;42.654;23.316;2022-12-07T08:57:09;72.50;;;36.85;;
29196;SDS011;62796;42.654;23.316;2022-12-07T08:59:35;87.28;;;36.97;;
29196;SDS011;62796;42.654;23.316;2022-12-07T09:02:03;82.18;;;38.97;;
29196;SDS011;62796;42.654;23.316;2022-12-07T09:04:29;59.40;;;31.20;;
29196;SDS011;62796;42.654;23.316;2022-12-07T09:06:55;63.35;;;36.00;;
29196;SDS011;62796;42.654;23.316;2022-12-07T09:09:20;89.18;;;40.97;;
29196;SDS011;62796;42.654;23.316;2022-12-07T09:11:46;69.88;;;34.03;;
29196;SDS011;62796;42.654;23.316;2022-12-07T09:14:12;71.40;;;41.08;;
29196;SDS011;62796;42.654;23.316;2022-12-07T09:16:38;62.13;;;36.10;;
29196;SDS011;62796;42.654;23.316;2022-12-07T09:19:04;55.38;;;31.60;;
29196;SDS011;62796;42.654;23.316;2022-12-07T09:21:29;52.85;;;28.75;;
29196;SDS011;62796;42.654;23.316;2022-12-07T09:23:55;52.92;;;29.90;;
29196;SDS011;62796;42.654;23.316;2022-12-07T09:26:21;42.88;;;25.73;;
29196;SDS011;62796;42.654;23.316;2022-12-07T09:28:46;46.30;;;26.13;;
29196;SDS011;62796;42.654;23.316;2022-12-07T09:31:12;51.22;;;25.50;;
29196;SDS011;62796;42.654;23.316;2022-12-07T09:33:37;52.83;;;27.20;;
29196;SDS011;62796;42.654;23.316;2022-12-07T09:36:03;100.95;;;33.63;;
29196;SDS011;62796;42.654;23.316;2022-12-07T09:38:29;77.55;;;31.15;;
29196;SDS011;62796;42.654;23.316;2022-12-07T09:40:56;61.72;;;29.30;;
29196;SDS011;62796;42.654;23.316;2022-12-07T09:43:22;56.88;;;32.17;;
29196;SDS011;62796;42.654;23.316;2022-12-07T09:45:51;56.55;;;31.02;;
29196;SDS011;62796;42.654;23.316;2022-12-07T09:48:28;66.43;;;29.95;;
29196;SDS011;62796;42.654;23.316;2022-12-07T09:50:57;60.10;;;31.05;;
29196;SDS011;62796;42.654;23.316;2022-12-07T09:53:31;70.20;;;33.60;;
29196;SDS011;62796;42.654;23.316;2022-12-07T09:55:59;68.43;;;32.25;;
29196;SDS011;62796;42.654;23.316;2022-12-07T09:58:27;64.50;;;32.03;;
29196;SDS011;62796;42.654;23.316;2022-12-07T10:00:55;60.67;;;31.00;;
29196;SDS011;62796;42.654;23.316;2022-12-07T10:03:23;68.95;;;35.65;;
29196;SDS011;62796;42.654;23.316;2022-12-07T10:05:54;60.78;;;32.55;;
29196;SDS011;62796;42.654;23.316;2022-12-07T10:08:20;57.25;;;30.73;;
29196;SDS011;62796;42.654;23.316;2022-12-07T10:10:48;77.32;;;33.05;;
29196;SDS011;62796;42.654;23.316;2022-12-07T10:13:20;73.35;;;34.83;;
29196;SDS011;62796;42.654;23.316;2022-12-07T10:15:58;92.63;;;35.90;;
29196;SDS011;62796;42.654;23.316;2022-12-07T10:23:37;64.75;;;30.88;;
29196;SDS011;62796;42.654;23.316;2022-12-07T10:26:21;59.20;;;27.55;;
29196;SDS011;62796;42.654;23.316;2022-12-07T10:28:54;50.80;;;27.33;;
29196;SDS011;62796;42.654;23.316;2022-12-07T10:31:21;49.78;;;28.20;;
29196;SDS011;62796;42.654;23.316;2022-12-07T10:38:50;46.30;;;26.77;;
29196;SDS011;62796;42.654;23.316;2022-12-07T10:41:18;43.70;;;24.63;;
29196;SDS011;62796;42.654;23.316;2022-12-07T10:43:54;45.25;;;23.38;;
29196;SDS011;62796;42.654;23.316;2022-12-07T10:51:17;44.33;;;23.30;;
29196;SDS011;62796;42.654;23.316;2022-12-07T10:54:03;46.65;;;22.48;;
29196;SDS011;62796;42.654;23.316;2022-12-07T10:56:54;39.83;;;21.50;;
29196;SDS011;62796;42.654;23.316;2022-12-07T10:59:45;37.92;;;21.92;;
29196;SDS011;62796;42.654;23.316;2022-12-07T11:08:00;59.72;;;24.50;;
29196;SDS011;62796;42.654;23.316;2022-12-07T11:13:22;48.65;;;22.63;;
29196;SDS011;62796;42.654;23.316;2022-12-07T11:16:03;46.60;;;23.08;;
29196;SDS011;62796;42.654;23.316;2022-12-07T11:29:36;36.03;;;20.35;;
29196;SDS011;62796;42.654;23.316;2022-12-07T11:31:58;41.25;;;21.85;;
29196;SDS011;62796;42.654;23.316;2022-12-07T11:37:33;39.85;;;19.23;;
29196;SDS011;62796;42.654;23.316;2022-12-07T11:45:47;35.80;;;18.05;;
29196;SDS011;62796;42.654;23.316;2022-12-07T11:48:41;44.35;;;20.88;;
29196;SDS011;62796;42.654;23.316;2022-12-07T11:51:16;39.00;;;22.85;;
29196;SDS011;62796;42.654;23.316;2022-12-07T11:53:50;40.00;;;16.67;;
29196;SDS011;62796;42.654;23.316;2022-12-07T11:56:22;26.08;;;14.20;;
29196;SDS011;62796;42.654;23.316;2022-12-07T11:58:57;35.63;;;16.23;;
29196;SDS011;62796;42.654;23.316;2022-12-07T12:06:39;91.65;;;23.08;;
29196;SDS011;62796;42.654;23.316;2022-12-07T12:09:17;31.80;;;17.33;;
29196;SDS011;62796;42.654;23.316;2022-12-07T12:14:30;41.38;;;17.98;;
29196;SDS011;62796;42.654;23.316;2022-12-07T12:22:39;30.90;;;18.15;;
29196;SDS011;62796;42.654;23.316;2022-12-07T12:25:19;35.47;;;18.70;;
29196;SDS011;62796;42.654;23.316;2022-12-07T12:27:51;36.38;;;17.40;;
29196;SDS011;62796;42.654;23.316;2022-12-07T12:30:25;46.92;;;19.73;;
29196;SDS011;62796;42.654;23.316;2022-12-07T12:32:51;58.33;;;19.17;;
29196;SDS011;62796;42.654;23.316;2022-12-07T12:35:22;52.70;;;17.15;;
29196;SDS011;62796;42.654;23.316;2022-12-07T12:37:52;53.42;;;17.35;;
29196;SDS011;62796;42.654;23.316;2022-12-07T12:42:56;28.35;;;14.40;;
29196;SDS011;62796;42.654;23.316;2022-12-07T12:45:23;42.40;;;14.68;;
29196;SDS011;62796;42.654;23.316;2022-12-07T12:47:58;50.53;;;15.23;;
29196;SDS011;62796;42.654;23.316;2022-12-07T12:50:49;38.20;;;15.52;;
29196;SDS011;62796;42.654;23.316;2022-12-07T12:53:58;42.92;;;17.30;;
29196;SDS011;62796;42.654;23.316;2022-12-07T12:56:38;33.42;;;14.32;;
29196;SDS011;62796;42.654;23.316;2022-12-07T13:02:07;22.38;;;12.98;;
29196;SDS011;62796;42.654;23.316;2022-12-07T13:04:50;29.50;;;15.88;;
29196;SDS011;62796;42.654;23.316;2022-12-07T13:15:32;42.33;;;15.55;;
29196;SDS011;62796;42.654;23.316;2022-12-07T13:18:02;24.52;;;14.10;;
29196;SDS011;62796;42.654;23.316;2022-12-07T13:20:48;35.40;;;15.27;;
29196;SDS011;62796;42.654;23.316;2022-12-07T13:23:16;34.28;;;16.70;;
29196;SDS011;62796;42.654;23.316;2022-12-07T13:25:54;23.77;;;11.82;;
29196;SDS011;62796;42.654;23.316;2022-12-07T13:28:26;21.25;;;11.68;;
29196;SDS011;62796;42.654;23.316;2022-12-07T13:31:09;24.38;;;10.98;;
29196;SDS011;62796;42.654;23.316;2022-12-07T13:33:39;21.20;;;11.20;;
29196;SDS011;62796;42.654;23.316;2022-12-07T13:36:12;22.08;;;11.15;;
29196;SDS011;62796;42.654;23.316;2022-12-07T13:38:54;18.25;;;11.15;;
29196;SDS011;62796;42.654;23.316;2022-12-07T13:41:22;24.50;;;12.88;;
29196;SDS011;62796;42.654;23.316;2022-12-07T13:44:02;27.70;;;13.27;;
29196;SDS011;62796;42.654;23.316;2022-12-07T13:49:30;24.67;;;12.90;;
29196;SDS011;62796;42.654;23.316;2022-12-07T13:55:28;22.35;;;13.93;;
29196;SDS011;62796;42.654;23.316;2022-12-07T13:57:39;30.23;;;13.77;;
29196;SDS011;62796;42.654;23.316;2022-12-07T14:00:06;28.85;;;14.20;;
29196;SDS011;62796;42.654;23.316;2022-12-07T14:03:00;30.58;;;14.95;;
29196;SDS011;62796;42.654;23.316;2022-12-07T14:05:29;50.60;;;16.98;;
29196;SDS011;62796;42.654;23.316;2022-12-07T14:10:31;38.50;;;16.83;;
29196;SDS011;62796;42.654;23.316;2022-12-07T14:12:58;37.40;;;16.65;;
29196;SDS011;62796;42.654;23.316;2022-12-07T14:15:27;47.67;;;19.33;;
29196;SDS011;62796;42.654;23.316;2022-12-07T14:17:55;45.97;;;17.23;;
29196;SDS011;62796;42.654;23.316;2022-12-07T14:22:54;45.30;;;17.90;;
29196;SDS011;62796;42.654;23.316;2022-12-07T14:25:22;53.55;;;21.02;;
29196;SDS011;62796;42.654;23.316;2022-12-07T14:30:17;45.58;;;20.10;;
29196;SDS011;62796;42.654;23.316;2022-12-07T14:32:43;48.60;;;20.50;;
29196;SDS011;62796;42.654;23.316;2022-12-07T14:35:13;39.53;;;19.02;;
29196;SDS011;62796;42.654;23.316;2022-12-07T14:37:42;54.97;;;20.25;;
29196;SDS011;62796;42.654;23.316;2022-12-07T14:40:12;151.90;;;33.15;;
29196;SDS011;62796;42.654;23.316;2022-12-07T14:42:43;100.57;;;27.23;;
29196;SDS011;62796;42.654;23.316;2022-12-07T14:45:15;118.30;;;30.55;;
29196;SDS011;62796;42.654;23.316;2022-12-07T14:47:43;114.90;;;30.92;;
29196;SDS011;62796;42.654;23.316;2022-12-07T14:50:11;74.57;;;24.13;;
29196;SDS011;62796;42.654;23.316;2022-12-07T14:52:40;69.72;;;20.50;;
29196;SDS011;62796;42.654;23.316;2022-12-07T14:55:16;59.03;;;22.15;;
29196;SDS011;62796;42.654;23.316;2022-12-07T14:57:54;56.47;;;21.35;;
29196;SDS011;62796;42.654;23.316;2022-12-07T15:00:20;48.35;;;18.48;;
29196;SDS011;62796;42.654;23.316;2022-12-07T15:02:47;42.30;;;19.00;;
29196;SDS011;62796;42.654;23.316;2022-12-07T15:05:14;53.58;;;19.20;;
29196;SDS011;62796;42.654;23.316;2022-12-07T15:07:40;50.03;;;20.60;;
29196;SDS011;62796;42.654;23.316;2022-12-07T15:10:08;56.10;;;19.80;;
29196;SDS011;62796;42.654;23.316;2022-12-07T15:12:47;57.72;;;20.90;;
29196;SDS011;62796;42.654;23.316;2022-12-07T15:15:12;68.65;;;22.83;;
29196;SDS011;62796;42.654;23.316;2022-12-07T15:17:38;61.17;;;26.70;;
29196;SDS011;62796;42.654;23.316;2022-12-07T15:20:07;66.38;;;29.27;;
29196;SDS011;62796;42.654;23.316;2022-12-07T15:22:36;68.30;;;29.15;;
29196;SDS011;62796;42.654;23.316;2022-12-07T15:25:02;70.57;;;32.10;;
29196;SDS011;62796;42.654;23.316;2022-12-07T15:27:29;81.57;;;33.72;;
29196;SDS011;62796;42.654;23.316;2022-12-07T15:29:55;75.80;;;32.58;;
29196;SDS011;62796;42.654;23.316;2022-12-07T15:32:21;82.45;;;33.72;;
29196;SDS011;62796;42.654;23.316;2022-12-07T15:34:47;72.32;;;33.72;;
29196;SDS011;62796;42.654;23.316;2022-12-07T15:37:15;60.05;;;30.15;;
29196;SDS011;62796;42.654;23.316;2022-12-07T15:39:40;60.50;;;28.77;;
29196;SDS011;62796;42.654;23.316;2022-12-07T15:42:06;66.65;;;29.92;;
29196;SDS011;62796;42.654;23.316;2022-12-07T15:44:31;66.38;;;30.80;;
29196;SDS011;62796;42.654;23.316;2022-12-07T15:47:15;57.33;;;26.08;;
29196;SDS011;62796;42.654;23.316;2022-12-07T15:49:41;59.17;;;26.70;;
29196;SDS011;62796;42.654;23.316;2022-12-07T15:52:06;58.47;;;26.83;;
29196;SDS011;62796;42.654;23.316;2022-12-07T15:54:32;62.90;;;29.55;;
29196;SDS011;62796;42.654;23.316;2022-12-07T15:56:57;57.17;;;28.02;;
29196;SDS011;62796;42.654;23.316;2022-12-07T15:59:23;55.75;;;25.55;;
29196;SDS011;62796;42.654;23.316;2022-12-07T16:01:50;56.33;;;26.48;;
29196;SDS011;62796;42.654;23.316;2022-12-07T16:04:15;62.78;;;27.88;;
29196;SDS011;62796;42.654;23.316;2022-12-07T16:06:41;64.13;;;30.10;;
29196;SDS011;62796;42.654;23.316;2022-12-07T16:09:07;62.95;;;31.17;;
29196;SDS011;62796;42.654;23.316;2022-12-07T16:11:32;82.20;;;35.67;;
29196;SDS011;62796;42.654;23.316;2022-12-07T16:13:57;76.55;;;35.78;;
29196;SDS011;62796;42.654;23.316;2022-12-07T16:16:23;73.05;;;37.72;;
29196;SDS011;62796;42.654;23.316;2022-12-07T16:18:49;83.78;;;37.47;;
29196;SDS011;62796;42.654;23.316;2022-12-07T16:21:15;69.50;;;35.40;;
29196;SDS011;62796;42.654;23.316;2022-12-07T16:23:42;85.80;;;37.95;;